sensor_id;sensor_type;location;lat;lon;timestamp;P1;durP1;ratioP1;P2;durP2;ratioP2
78799;SDS011;68148;55.328;86.106;2023-03-23T00:01:11;3.13;;;1.48;;
78799;SDS011;68148;55.328;86.106;2023-03-23T00:03:39;6.13;;;3.03;;
78799;SDS011;68148;55.328;86.106;2023-03-23T00:06:07;3.67;;;2.10;;
78799;SDS011;68148;55.328;86.106;2023-03-23T00:08:36;6.82;;;4.40;;
78799;SDS011;68148;55.328;86.106;2023-03-23T00:11:04;3.33;;;2.95;;
78799;SDS011;68148;55.328;86.106;2023-03-23T00:13:30;8.05;;;4.22;;
78799;SDS011;68148;55.328;86.106;2023-03-23T00:15:56;7.63;;;3.47;;
78799;SDS011;68148;55.328;86.106;2023-03-23T00:18:22;4.97;;;2.35;;
78799;SDS011;68148;55.328;86.106;2023-03-23T00:20:53;8.50;;;3.92;;
78799;SDS011;68148;55.328;86.106;2023-03-23T00:23:22;1.40;;;1.30;;
78799;SDS011;68148;55.328;86.106;2023-03-23T00:25:54;5.63;;;3.33;;
78799;SDS011;68148;55.328;86.106;2023-03-23T00:28:21;3.65;;;2.53;;
78799;SDS011;68148;55.328;86.106;2023-03-23T00:30:48;2.45;;;2.25;;
78799;SDS011;68148;55.328;86.106;2023-03-23T00:33:14;1.55;;;1.27;;
78799;SDS011;68148;55.328;86.106;2023-03-23T00:35:40;6.70;;;2.95;;
78799;SDS011;68148;55.328;86.106;2023-03-23T00:38:06;4.10;;;3.17;;
78799;SDS011;68148;55.328;86.106;2023-03-23T00:40:32;19.10;;;4.80;;
78799;SDS011;68148;55.328;86.106;2023-03-23T00:42:58;5.25;;;3.55;;
78799;SDS011;68148;55.328;86.106;2023-03-23T00:45:24;10.43;;;3.42;;
78799;SDS011;68148;55.328;86.106;2023-03-23T00:47:50;28.80;;;3.65;;
78799;SDS011;68148;55.328;86.106;2023-03-23T00:50:25;3.63;;;2.67;;
78799;SDS011;68148;55.328;86.106;2023-03-23T00:52:51;27.35;;;4.10;;
78799;SDS011;68148;55.328;86.106;2023-03-23T00:55:18;6.35;;;2.38;;
78799;SDS011;68148;55.328;86.106;2023-03-23T00:57:49;7.65;;;4.28;;
78799;SDS011;68148;55.328;86.106;2023-03-23T01:00:17;7.78;;;3.65;;
78799;SDS011;68148;55.328;86.106;2023-03-23T01:02:44;16.67;;;6.05;;
78799;SDS011;68148;55.328;86.106;2023-03-23T01:05:10;8.80;;;4.72;;
78799;SDS011;68148;55.328;86.106;2023-03-23T01:07:37;6.72;;;2.08;;
78799;SDS011;68148;55.328;86.106;2023-03-23T01:10:03;7.85;;;2.92;;
78799;SDS011;68148;55.328;86.106;2023-03-23T01:12:30;6.82;;;2.53;;
78799;SDS011;68148;55.328;86.106;2023-03-23T01:14:56;0.30;;;0.30;;
78799;SDS011;68148;55.328;86.106;2023-03-23T01:17:22;10.05;;;3.88;;
78799;SDS011;68148;55.328;86.106;2023-03-23T01:19:48;5.20;;;3.22;;
78799;SDS011;68148;55.328;86.106;2023-03-23T01:22:14;25.48;;;4.90;;
78799;SDS011;68148;55.328;86.106;2023-03-23T01:24:40;14.63;;;5.10;;
78799;SDS011;68148;55.328;86.106;2023-03-23T01:27:06;10.38;;;3.97;;
78799;SDS011;68148;55.328;86.106;2023-03-23T01:29:33;4.70;;;2.33;;
78799;SDS011;68148;55.328;86.106;2023-03-23T01:31:59;16.17;;;4.75;;
78799;SDS011;68148;55.328;86.106;2023-03-23T01:34:25;10.93;;;1.58;;
78799;SDS011;68148;55.328;86.106;2023-03-23T01:36:51;6.40;;;2.78;;
78799;SDS011;68148;55.328;86.106;2023-03-23T01:39:17;1.83;;;1.40;;
78799;SDS011;68148;55.328;86.106;2023-03-23T01:41:43;14.27;;;3.35;;
78799;SDS011;68148;55.328;86.106;2023-03-23T01:46:41;8.60;;;3.33;;
78799;SDS011;68148;55.328;86.106;2023-03-23T01:49:09;13.50;;;3.95;;
78799;SDS011;68148;55.328;86.106;2023-03-23T01:51:48;9.48;;;4.43;;
78799;SDS011;68148;55.328;86.106;2023-03-23T01:54:18;5.07;;;2.80;;
78799;SDS011;68148;55.328;86.106;2023-03-23T01:56:50;3.75;;;2.70;;
78799;SDS011;68148;55.328;86.106;2023-03-23T01:59:24;7.68;;;5.45;;
78799;SDS011;68148;55.328;86.106;2023-03-23T02:01:52;7.00;;;4.22;;
78799;SDS011;68148;55.328;86.106;2023-03-23T02:04:19;10.75;;;4.88;;
78799;SDS011;68148;55.328;86.106;2023-03-23T02:06:47;16.30;;;6.05;;
78799;SDS011;68148;55.328;86.106;2023-03-23T02:09:13;14.25;;;5.80;;
78799;SDS011;68148;55.328;86.106;2023-03-23T02:11:41;7.35;;;2.38;;
78799;SDS011;68148;55.328;86.106;2023-03-23T02:14:07;12.82;;;4.32;;
78799;SDS011;68148;55.328;86.106;2023-03-23T02:24:40;10.27;;;5.30;;
78799;SDS011;68148;55.328;86.106;2023-03-23T02:41:56;4.07;;;1.90;;
78799;SDS011;68148;55.328;86.106;2023-03-23T02:44:28;9.68;;;3.40;;
78799;SDS011;68148;55.328;86.106;2023-03-23T02:46:57;8.15;;;3.47;;
78799;SDS011;68148;55.328;86.106;2023-03-23T02:49:26;11.75;;;3.85;;
78799;SDS011;68148;55.328;86.106;2023-03-23T02:51:55;5.30;;;1.65;;
78799;SDS011;68148;55.328;86.106;2023-03-23T02:54:26;7.47;;;2.40;;
78799;SDS011;68148;55.328;86.106;2023-03-23T02:56:54;6.18;;;3.35;;
78799;SDS011;68148;55.328;86.106;2023-03-23T02:59:22;4.53;;;2.53;;
78799;SDS011;68148;55.328;86.106;2023-03-23T03:01:50;11.80;;;3.20;;
78799;SDS011;68148;55.328;86.106;2023-03-23T03:04:23;8.68;;;4.00;;
78799;SDS011;68148;55.328;86.106;2023-03-23T03:06:54;13.77;;;4.28;;
78799;SDS011;68148;55.328;86.106;2023-03-23T03:09:49;16.38;;;3.75;;
78799;SDS011;68148;55.328;86.106;2023-03-23T03:12:31;10.52;;;3.88;;
78799;SDS011;68148;55.328;86.106;2023-03-23T03:15:53;8.15;;;4.10;;
78799;SDS011;68148;55.328;86.106;2023-03-23T03:20:48;8.20;;;4.10;;
78799;SDS011;68148;55.328;86.106;2023-03-23T03:23:35;11.25;;;6.20;;
78799;SDS011;68148;55.328;86.106;2023-03-23T03:26:03;9.68;;;3.60;;
78799;SDS011;68148;55.328;86.106;2023-03-23T03:28:31;15.15;;;3.47;;
78799;SDS011;68148;55.328;86.106;2023-03-23T03:31:07;5.53;;;3.00;;
78799;SDS011;68148;55.328;86.106;2023-03-23T03:33:34;11.15;;;4.47;;
78799;SDS011;68148;55.328;86.106;2023-03-23T03:36:01;10.48;;;2.45;;
78799;SDS011;68148;55.328;86.106;2023-03-23T03:38:30;12.32;;;3.53;;
78799;SDS011;68148;55.328;86.106;2023-03-23T03:41:14;7.43;;;4.13;;
78799;SDS011;68148;55.328;86.106;2023-03-23T03:43:40;3.22;;;1.33;;
78799;SDS011;68148;55.328;86.106;2023-03-23T03:46:06;11.25;;;5.43;;
78799;SDS011;68148;55.328;86.106;2023-03-23T03:48:34;11.05;;;4.72;;
78799;SDS011;68148;55.328;86.106;2023-03-23T03:51:01;2.70;;;1.80;;
78799;SDS011;68148;55.328;86.106;2023-03-23T03:53:29;12.75;;;3.85;;
78799;SDS011;68148;55.328;86.106;2023-03-23T03:55:56;10.30;;;3.50;;
78799;SDS011;68148;55.328;86.106;2023-03-23T03:58:22;11.60;;;5.20;;
78799;SDS011;68148;55.328;86.106;2023-03-23T04:00:51;21.63;;;7.57;;
78799;SDS011;68148;55.328;86.106;2023-03-23T04:03:18;15.75;;;5.72;;
78799;SDS011;68148;55.328;86.106;2023-03-23T04:05:44;12.27;;;3.95;;
78799;SDS011;68148;55.328;86.106;2023-03-23T04:08:11;12.38;;;5.40;;
78799;SDS011;68148;55.328;86.106;2023-03-23T04:10:37;8.23;;;3.80;;
78799;SDS011;68148;55.328;86.106;2023-03-23T04:13:05;11.85;;;4.00;;
78799;SDS011;68148;55.328;86.106;2023-03-23T04:15:31;14.73;;;5.30;;
78799;SDS011;68148;55.328;86.106;2023-03-23T04:17:57;11.48;;;4.10;;
78799;SDS011;68148;55.328;86.106;2023-03-23T04:20:24;7.32;;;2.97;;
78799;SDS011;68148;55.328;86.106;2023-03-23T04:22:50;19.98;;;4.53;;
78799;SDS011;68148;55.328;86.106;2023-03-23T04:25:18;11.35;;;3.38;;
78799;SDS011;68148;55.328;86.106;2023-03-23T04:27:45;11.15;;;3.67;;
78799;SDS011;68148;55.328;86.106;2023-03-23T04:30:11;16.67;;;3.78;;
78799;SDS011;68148;55.328;86.106;2023-03-23T04:32:38;5.22;;;3.05;;
78799;SDS011;68148;55.328;86.106;2023-03-23T04:35:05;6.32;;;2.72;;
78799;SDS011;68148;55.328;86.106;2023-03-23T04:37:32;13.05;;;3.65;;
78799;SDS011;68148;55.328;86.106;2023-03-23T04:39:58;10.27;;;3.05;;
78799;SDS011;68148;55.328;86.106;2023-03-23T04:42:24;8.90;;;3.15;;
78799;SDS011;68148;55.328;86.106;2023-03-23T04:44:50;7.40;;;3.70;;
78799;SDS011;68148;55.328;86.106;2023-03-23T04:47:16;10.45;;;2.78;;
78799;SDS011;68148;55.328;86.106;2023-03-23T04:49:43;5.55;;;2.55;;
78799;SDS011;68148;55.328;86.106;2023-03-23T04:52:10;15.68;;;3.22;;
78799;SDS011;68148;55.328;86.106;2023-03-23T04:54:36;9.93;;;3.63;;
78799;SDS011;68148;55.328;86.106;2023-03-23T04:57:02;2.17;;;1.02;;
78799;SDS011;68148;55.328;86.106;2023-03-23T04:59:28;5.50;;;2.22;;
78799;SDS011;68148;55.328;86.106;2023-03-23T05:01:54;12.70;;;2.63;;
78799;SDS011;68148;55.328;86.106;2023-03-23T05:04:21;6.03;;;2.50;;
78799;SDS011;68148;55.328;86.106;2023-03-23T05:06:47;7.45;;;3.13;;
78799;SDS011;68148;55.328;86.106;2023-03-23T05:09:13;8.52;;;3.45;;
78799;SDS011;68148;55.328;86.106;2023-03-23T05:11:40;15.52;;;3.47;;
78799;SDS011;68148;55.328;86.106;2023-03-23T05:14:06;5.65;;;2.20;;
78799;SDS011;68148;55.328;86.106;2023-03-23T05:16:32;17.55;;;3.50;;
78799;SDS011;68148;55.328;86.106;2023-03-23T05:19:04;17.48;;;3.58;;
78799;SDS011;68148;55.328;86.106;2023-03-23T05:21:30;5.90;;;2.15;;
78799;SDS011;68148;55.328;86.106;2023-03-23T05:23:57;9.30;;;3.30;;
78799;SDS011;68148;55.328;86.106;2023-03-23T05:26:23;12.98;;;5.03;;
78799;SDS011;68148;55.328;86.106;2023-03-23T05:28:49;11.63;;;2.25;;
78799;SDS011;68148;55.328;86.106;2023-03-23T05:31:15;22.48;;;3.47;;
78799;SDS011;68148;55.328;86.106;2023-03-23T05:33:41;15.45;;;3.70;;
78799;SDS011;68148;55.328;86.106;2023-03-23T05:36:07;7.60;;;2.85;;
78799;SDS011;68148;55.328;86.106;2023-03-23T05:38:33;8.98;;;3.67;;
78799;SDS011;68148;55.328;86.106;2023-03-23T05:40:59;12.73;;;4.00;;
78799;SDS011;68148;55.328;86.106;2023-03-23T05:43:26;8.57;;;4.18;;
78799;SDS011;68148;55.328;86.106;2023-03-23T05:45:52;18.90;;;4.53;;
78799;SDS011;68148;55.328;86.106;2023-03-23T05:48:19;11.65;;;3.80;;
78799;SDS011;68148;55.328;86.106;2023-03-23T05:50:45;20.58;;;2.25;;
78799;SDS011;68148;55.328;86.106;2023-03-23T05:53:11;11.43;;;4.72;;
78799;SDS011;68148;55.328;86.106;2023-03-23T05:55:37;12.05;;;2.70;;
78799;SDS011;68148;55.328;86.106;2023-03-23T05:58:04;10.50;;;4.35;;
78799;SDS011;68148;55.328;86.106;2023-03-23T06:00:30;12.82;;;3.75;;
78799;SDS011;68148;55.328;86.106;2023-03-23T06:02:56;10.95;;;2.72;;
78799;SDS011;68148;55.328;86.106;2023-03-23T06:05:22;17.13;;;5.25;;
78799;SDS011;68148;55.328;86.106;2023-03-23T06:07:49;14.13;;;4.40;;
78799;SDS011;68148;55.328;86.106;2023-03-23T06:10:15;17.83;;;3.53;;
78799;SDS011;68148;55.328;86.106;2023-03-23T06:12:41;16.23;;;3.58;;
78799;SDS011;68148;55.328;86.106;2023-03-23T06:15:07;8.43;;;3.47;;
78799;SDS011;68148;55.328;86.106;2023-03-23T06:17:36;13.70;;;4.13;;
78799;SDS011;68148;55.328;86.106;2023-03-23T06:20:05;14.40;;;3.22;;
78799;SDS011;68148;55.328;86.106;2023-03-23T06:22:32;14.05;;;5.30;;
78799;SDS011;68148;55.328;86.106;2023-03-23T06:24:58;11.13;;;3.67;;
78799;SDS011;68148;55.328;86.106;2023-03-23T06:27:24;10.98;;;3.35;;
78799;SDS011;68148;55.328;86.106;2023-03-23T06:29:50;18.08;;;3.50;;
78799;SDS011;68148;55.328;86.106;2023-03-23T06:32:16;15.52;;;4.15;;
78799;SDS011;68148;55.328;86.106;2023-03-23T06:34:42;17.35;;;4.80;;
78799;SDS011;68148;55.328;86.106;2023-03-23T06:37:10;16.95;;;4.78;;
78799;SDS011;68148;55.328;86.106;2023-03-23T06:39:36;14.02;;;2.53;;
78799;SDS011;68148;55.328;86.106;2023-03-23T06:42:02;26.48;;;4.10;;
78799;SDS011;68148;55.328;86.106;2023-03-23T06:44:28;8.30;;;2.97;;
78799;SDS011;68148;55.328;86.106;2023-03-23T06:46:54;14.07;;;3.42;;
78799;SDS011;68148;55.328;86.106;2023-03-23T06:49:20;12.43;;;3.65;;
78799;SDS011;68148;55.328;86.106;2023-03-23T06:51:46;12.50;;;3.53;;
78799;SDS011;68148;55.328;86.106;2023-03-23T06:54:13;14.88;;;4.07;;
78799;SDS011;68148;55.328;86.106;2023-03-23T06:56:39;15.40;;;3.85;;
78799;SDS011;68148;55.328;86.106;2023-03-23T06:59:04;15.00;;;3.80;;
78799;SDS011;68148;55.328;86.106;2023-03-23T07:01:31;13.15;;;4.13;;
78799;SDS011;68148;55.328;86.106;2023-03-23T07:03:57;17.73;;;5.00;;
78799;SDS011;68148;55.328;86.106;2023-03-23T07:06:23;10.40;;;4.35;;
78799;SDS011;68148;55.328;86.106;2023-03-23T07:08:49;12.40;;;4.32;;
78799;SDS011;68148;55.328;86.106;2023-03-23T07:11:15;13.32;;;4.38;;
78799;SDS011;68148;55.328;86.106;2023-03-23T07:13:41;18.60;;;4.28;;
78799;SDS011;68148;55.328;86.106;2023-03-23T07:16:07;17.80;;;3.92;;
78799;SDS011;68148;55.328;86.106;2023-03-23T07:18:34;21.33;;;4.82;;
78799;SDS011;68148;55.328;86.106;2023-03-23T07:21:00;12.52;;;3.83;;
78799;SDS011;68148;55.328;86.106;2023-03-23T07:23:25;13.40;;;4.07;;
78799;SDS011;68148;55.328;86.106;2023-03-23T07:25:51;17.75;;;4.10;;
78799;SDS011;68148;55.328;86.106;2023-03-23T07:28:17;15.77;;;3.83;;
78799;SDS011;68148;55.328;86.106;2023-03-23T07:30:43;12.35;;;3.85;;
78799;SDS011;68148;55.328;86.106;2023-03-23T07:33:10;16.70;;;4.13;;
78799;SDS011;68148;55.328;86.106;2023-03-23T07:35:36;13.35;;;4.75;;
78799;SDS011;68148;55.328;86.106;2023-03-23T07:38:03;16.80;;;2.40;;
78799;SDS011;68148;55.328;86.106;2023-03-23T07:40:30;10.95;;;3.63;;
78799;SDS011;68148;55.328;86.106;2023-03-23T07:42:57;14.00;;;4.18;;
78799;SDS011;68148;55.328;86.106;2023-03-23T07:45:23;10.98;;;4.40;;
78799;SDS011;68148;55.328;86.106;2023-03-23T07:47:49;13.30;;;5.57;;
78799;SDS011;68148;55.328;86.106;2023-03-23T07:52:44;16.70;;;4.57;;
78799;SDS011;68148;55.328;86.106;2023-03-23T07:55:11;13.13;;;4.85;;
78799;SDS011;68148;55.328;86.106;2023-03-23T07:57:37;20.52;;;5.82;;
78799;SDS011;68148;55.328;86.106;2023-03-23T08:00:04;24.35;;;5.00;;
78799;SDS011;68148;55.328;86.106;2023-03-23T08:02:30;15.70;;;4.07;;
78799;SDS011;68148;55.328;86.106;2023-03-23T08:04:56;13.98;;;5.05;;
78799;SDS011;68148;55.328;86.106;2023-03-23T08:07:22;14.10;;;3.83;;
78799;SDS011;68148;55.328;86.106;2023-03-23T08:09:48;18.67;;;4.60;;
78799;SDS011;68148;55.328;86.106;2023-03-23T08:12:16;13.57;;;3.78;;
78799;SDS011;68148;55.328;86.106;2023-03-23T08:14:42;14.38;;;3.75;;
78799;SDS011;68148;55.328;86.106;2023-03-23T08:17:08;15.05;;;5.25;;
78799;SDS011;68148;55.328;86.106;2023-03-23T08:19:34;16.27;;;4.60;;
78799;SDS011;68148;55.328;86.106;2023-03-23T08:22:00;20.05;;;5.22;;
78799;SDS011;68148;55.328;86.106;2023-03-23T08:24:26;16.17;;;4.70;;
78799;SDS011;68148;55.328;86.106;2023-03-23T08:26:53;14.38;;;4.35;;
78799;SDS011;68148;55.328;86.106;2023-03-23T08:29:18;20.10;;;5.13;;
78799;SDS011;68148;55.328;86.106;2023-03-23T08:31:44;20.73;;;5.57;;
78799;SDS011;68148;55.328;86.106;2023-03-23T08:34:11;21.15;;;5.75;;
78799;SDS011;68148;55.328;86.106;2023-03-23T08:36:37;15.10;;;5.70;;
78799;SDS011;68148;55.328;86.106;2023-03-23T08:39:03;18.02;;;5.55;;
78799;SDS011;68148;55.328;86.106;2023-03-23T08:41:29;13.35;;;4.93;;
78799;SDS011;68148;55.328;86.106;2023-03-23T08:43:55;16.60;;;4.53;;
78799;SDS011;68148;55.328;86.106;2023-03-23T08:46:21;21.95;;;4.93;;
78799;SDS011;68148;55.328;86.106;2023-03-23T08:48:47;15.25;;;4.20;;
78799;SDS011;68148;55.328;86.106;2023-03-23T08:51:15;22.33;;;4.20;;
78799;SDS011;68148;55.328;86.106;2023-03-23T08:53:41;9.27;;;3.67;;
78799;SDS011;68148;55.328;86.106;2023-03-23T08:56:07;9.68;;;3.50;;
78799;SDS011;68148;55.328;86.106;2023-03-23T08:58:35;11.98;;;4.03;;
78799;SDS011;68148;55.328;86.106;2023-03-23T09:01:03;11.35;;;4.25;;
78799;SDS011;68148;55.328;86.106;2023-03-23T09:03:29;16.67;;;4.57;;
78799;SDS011;68148;55.328;86.106;2023-03-23T09:05:59;17.30;;;4.07;;
78799;SDS011;68148;55.328;86.106;2023-03-23T09:08:26;10.85;;;3.97;;
78799;SDS011;68148;55.328;86.106;2023-03-23T09:10:52;7.50;;;3.03;;
78799;SDS011;68148;55.328;86.106;2023-03-23T09:13:18;12.90;;;4.50;;
78799;SDS011;68148;55.328;86.106;2023-03-23T09:15:44;18.85;;;4.47;;
78799;SDS011;68148;55.328;86.106;2023-03-23T09:18:10;13.93;;;4.13;;
78799;SDS011;68148;55.328;86.106;2023-03-23T09:20:37;12.75;;;3.95;;
78799;SDS011;68148;55.328;86.106;2023-03-23T09:23:03;16.55;;;3.08;;
78799;SDS011;68148;55.328;86.106;2023-03-23T09:25:29;12.57;;;3.38;;
78799;SDS011;68148;55.328;86.106;2023-03-23T09:27:56;10.75;;;3.50;;
78799;SDS011;68148;55.328;86.106;2023-03-23T09:30:24;11.30;;;3.25;;
78799;SDS011;68148;55.328;86.106;2023-03-23T09:32:53;14.25;;;3.58;;
78799;SDS011;68148;55.328;86.106;2023-03-23T09:35:20;11.07;;;3.92;;
78799;SDS011;68148;55.328;86.106;2023-03-23T09:37:47;11.15;;;3.25;;
78799;SDS011;68148;55.328;86.106;2023-03-23T09:40:15;8.55;;;2.90;;
78799;SDS011;68148;55.328;86.106;2023-03-23T09:42:54;20.13;;;3.40;;
78799;SDS011;68148;55.328;86.106;2023-03-23T09:56:36;8.90;;;2.88;;
78799;SDS011;68148;55.328;86.106;2023-03-23T09:59:39;10.48;;;2.80;;
78799;SDS011;68148;55.328;86.106;2023-03-23T10:02:12;7.55;;;2.65;;
78799;SDS011;68148;55.328;86.106;2023-03-23T10:04:45;14.77;;;2.97;;
78799;SDS011;68148;55.328;86.106;2023-03-23T10:07:13;7.13;;;2.47;;
78799;SDS011;68148;55.328;86.106;2023-03-23T10:09:40;8.50;;;2.50;;
78799;SDS011;68148;55.328;86.106;2023-03-23T10:17:28;22.48;;;3.13;;
78799;SDS011;68148;55.328;86.106;2023-03-23T10:22:40;5.60;;;1.65;;
78799;SDS011;68148;55.328;86.106;2023-03-23T10:25:21;11.40;;;1.50;;
78799;SDS011;68148;55.328;86.106;2023-03-23T10:30:55;4.70;;;1.90;;
78799;SDS011;68148;55.328;86.106;2023-03-23T10:33:28;14.15;;;1.63;;
78799;SDS011;68148;55.328;86.106;2023-03-23T10:36:07;8.48;;;2.47;;
78799;SDS011;68148;55.328;86.106;2023-03-23T10:38:44;7.18;;;1.45;;
78799;SDS011;68148;55.328;86.106;2023-03-23T10:41:15;7.38;;;1.42;;
78799;SDS011;68148;55.328;86.106;2023-03-23T10:43:43;4.22;;;1.63;;
78799;SDS011;68148;55.328;86.106;2023-03-23T10:48:38;9.63;;;1.92;;
78799;SDS011;68148;55.328;86.106;2023-03-23T10:51:05;7.43;;;1.98;;
78799;SDS011;68148;55.328;86.106;2023-03-23T10:53:42;7.15;;;1.63;;
78799;SDS011;68148;55.328;86.106;2023-03-23T10:56:43;8.30;;;2.20;;
78799;SDS011;68148;55.328;86.106;2023-03-23T10:59:12;5.38;;;1.55;;
78799;SDS011;68148;55.328;86.106;2023-03-23T11:01:47;5.30;;;1.65;;
78799;SDS011;68148;55.328;86.106;2023-03-23T11:04:18;5.97;;;1.45;;
78799;SDS011;68148;55.328;86.106;2023-03-23T11:06:47;10.07;;;1.60;;
78799;SDS011;68148;55.328;86.106;2023-03-23T11:09:18;10.50;;;1.70;;
78799;SDS011;68148;55.328;86.106;2023-03-23T11:11:50;13.20;;;1.90;;
78799;SDS011;68148;55.328;86.106;2023-03-23T11:14:19;6.38;;;1.52;;
78799;SDS011;68148;55.328;86.106;2023-03-23T11:16:59;16.95;;;2.47;;
78799;SDS011;68148;55.328;86.106;2023-03-23T11:22:04;8.65;;;1.40;;
78799;SDS011;68148;55.328;86.106;2023-03-23T11:24:40;2.63;;;1.00;;
78799;SDS011;68148;55.328;86.106;2023-03-23T11:27:08;10.57;;;2.25;;
78799;SDS011;68148;55.328;86.106;2023-03-23T11:29:36;6.25;;;2.13;;
78799;SDS011;68148;55.328;86.106;2023-03-23T11:32:10;11.55;;;1.92;;
78799;SDS011;68148;55.328;86.106;2023-03-23T11:34:41;5.57;;;1.63;;
78799;SDS011;68148;55.328;86.106;2023-03-23T11:37:10;8.20;;;2.00;;
78799;SDS011;68148;55.328;86.106;2023-03-23T11:39:53;16.10;;;2.50;;
78799;SDS011;68148;55.328;86.106;2023-03-23T11:42:23;7.32;;;1.83;;
78799;SDS011;68148;55.328;86.106;2023-03-23T11:44:51;9.88;;;2.30;;
78799;SDS011;68148;55.328;86.106;2023-03-23T11:52:49;14.93;;;2.50;;
78799;SDS011;68148;55.328;86.106;2023-03-23T11:55:33;7.93;;;2.70;;
78799;SDS011;68148;55.328;86.106;2023-03-23T12:00:27;14.65;;;2.35;;
78799;SDS011;68148;55.328;86.106;2023-03-23T12:14:28;9.48;;;1.58;;
78799;SDS011;68148;55.328;86.106;2023-03-23T12:25:05;7.05;;;2.40;;
78799;SDS011;68148;55.328;86.106;2023-03-23T12:30:55;6.45;;;1.83;;
78799;SDS011;68148;55.328;86.106;2023-03-23T12:34:06;12.32;;;2.50;;
78799;SDS011;68148;55.328;86.106;2023-03-23T12:40:00;10.05;;;2.25;;
78799;SDS011;68148;55.328;86.106;2023-03-23T12:45:41;13.13;;;2.95;;
78799;SDS011;68148;55.328;86.106;2023-03-23T12:48:13;6.68;;;2.42;;
78799;SDS011;68148;55.328;86.106;2023-03-23T12:51:21;7.10;;;2.25;;
78799;SDS011;68148;55.328;86.106;2023-03-23T12:56:34;11.45;;;2.88;;
78799;SDS011;68148;55.328;86.106;2023-03-23T13:01:46;6.53;;;2.65;;
78799;SDS011;68148;55.328;86.106;2023-03-23T13:04:25;9.15;;;3.47;;
78799;SDS011;68148;55.328;86.106;2023-03-23T13:06:58;11.65;;;3.38;;
78799;SDS011;68148;55.328;86.106;2023-03-23T13:12:02;14.10;;;3.08;;
78799;SDS011;68148;55.328;86.106;2023-03-23T13:22:39;17.70;;;2.90;;
78799;SDS011;68148;55.328;86.106;2023-03-23T13:25:29;13.40;;;4.22;;
78799;SDS011;68148;55.328;86.106;2023-03-23T13:28:23;13.50;;;3.88;;
78799;SDS011;68148;55.328;86.106;2023-03-23T13:30:58;25.25;;;2.90;;
78799;SDS011;68148;55.328;86.106;2023-03-23T13:33:33;8.77;;;3.35;;
78799;SDS011;68148;55.328;86.106;2023-03-23T13:36:11;8.98;;;2.55;;
78799;SDS011;68148;55.328;86.106;2023-03-23T13:38:39;11.40;;;3.42;;
78799;SDS011;68148;55.328;86.106;2023-03-23T13:41:12;11.15;;;3.50;;
78799;SDS011;68148;55.328;86.106;2023-03-23T13:43:40;25.35;;;4.22;;
78799;SDS011;68148;55.328;86.106;2023-03-23T13:46:09;6.80;;;2.58;;
78799;SDS011;68148;55.328;86.106;2023-03-23T13:56:47;17.38;;;4.53;;
78799;SDS011;68148;55.328;86.106;2023-03-23T14:01:55;39.05;;;5.85;;
78799;SDS011;68148;55.328;86.106;2023-03-23T14:11:44;15.77;;;4.80;;
78799;SDS011;68148;55.328;86.106;2023-03-23T14:14:39;21.00;;;5.65;;
78799;SDS011;68148;55.328;86.106;2023-03-23T14:17:17;41.03;;;10.43;;
78799;SDS011;68148;55.328;86.106;2023-03-23T14:19:48;36.47;;;9.20;;
78799;SDS011;68148;55.328;86.106;2023-03-23T14:22:21;33.25;;;9.10;;
78799;SDS011;68148;55.328;86.106;2023-03-23T14:27:20;30.08;;;7.72;;
78799;SDS011;68148;55.328;86.106;2023-03-23T14:30:03;21.30;;;5.85;;
78799;SDS011;68148;55.328;86.106;2023-03-23T14:32:33;34.53;;;6.13;;
78799;SDS011;68148;55.328;86.106;2023-03-23T14:37:53;21.45;;;6.32;;
78799;SDS011;68148;55.328;86.106;2023-03-23T14:40:20;12.77;;;4.53;;
78799;SDS011;68148;55.328;86.106;2023-03-23T14:42:47;22.02;;;5.43;;
78799;SDS011;68148;55.328;86.106;2023-03-23T14:45:16;23.45;;;5.30;;
78799;SDS011;68148;55.328;86.106;2023-03-23T14:47:45;20.20;;;5.15;;
78799;SDS011;68148;55.328;86.106;2023-03-23T14:53:21;20.58;;;4.90;;
78799;SDS011;68148;55.328;86.106;2023-03-23T14:55:54;9.77;;;3.58;;
78799;SDS011;68148;55.328;86.106;2023-03-23T14:58:24;13.68;;;3.65;;
78799;SDS011;68148;55.328;86.106;2023-03-23T15:03:36;14.82;;;3.28;;
78799;SDS011;68148;55.328;86.106;2023-03-23T15:06:11;15.80;;;3.58;;
78799;SDS011;68148;55.328;86.106;2023-03-23T15:08:40;8.73;;;2.72;;
78799;SDS011;68148;55.328;86.106;2023-03-23T15:11:20;10.68;;;3.28;;
78799;SDS011;68148;55.328;86.106;2023-03-23T15:13:50;10.70;;;3.08;;
78799;SDS011;68148;55.328;86.106;2023-03-23T15:16:26;18.40;;;3.25;;
78799;SDS011;68148;55.328;86.106;2023-03-23T15:21:27;10.95;;;2.83;;
78799;SDS011;68148;55.328;86.106;2023-03-23T15:23:56;13.48;;;3.22;;
78799;SDS011;68148;55.328;86.106;2023-03-23T15:29:34;9.15;;;3.10;;
78799;SDS011;68148;55.328;86.106;2023-03-23T15:31:45;11.35;;;3.28;;
78799;SDS011;68148;55.328;86.106;2023-03-23T15:36:51;10.93;;;3.35;;
78799;SDS011;68148;55.328;86.106;2023-03-23T15:39:20;8.25;;;2.72;;
78799;SDS011;68148;55.328;86.106;2023-03-23T15:41:47;7.07;;;2.45;;
78799;SDS011;68148;55.328;86.106;2023-03-23T15:44:22;5.68;;;1.70;;
78799;SDS011;68148;55.328;86.106;2023-03-23T15:47:10;6.35;;;1.65;;
78799;SDS011;68148;55.328;86.106;2023-03-23T15:49:36;4.80;;;1.33;;
78799;SDS011;68148;55.328;86.106;2023-03-23T15:52:03;9.05;;;2.47;;
78799;SDS011;68148;55.328;86.106;2023-03-23T15:54:30;6.38;;;1.88;;
78799;SDS011;68148;55.328;86.106;2023-03-23T15:57:02;8.10;;;2.75;;
78799;SDS011;68148;55.328;86.106;2023-03-23T15:59:28;7.43;;;2.65;;
78799;SDS011;68148;55.328;86.106;2023-03-23T16:01:54;3.95;;;1.52;;
78799;SDS011;68148;55.328;86.106;2023-03-23T16:04:23;8.25;;;1.80;;
78799;SDS011;68148;55.328;86.106;2023-03-23T16:06:49;8.90;;;2.75;;
78799;SDS011;68148;55.328;86.106;2023-03-23T16:09:19;11.77;;;3.53;;
78799;SDS011;68148;55.328;86.106;2023-03-23T16:11:45;13.50;;;3.92;;
78799;SDS011;68148;55.328;86.106;2023-03-23T16:14:11;20.38;;;5.13;;
78799;SDS011;68148;55.328;86.106;2023-03-23T16:16:45;11.63;;;4.68;;
78799;SDS011;68148;55.328;86.106;2023-03-23T16:19:14;7.82;;;2.67;;
78799;SDS011;68148;55.328;86.106;2023-03-23T16:21:40;8.70;;;2.33;;
78799;SDS011;68148;55.328;86.106;2023-03-23T16:24:09;12.57;;;1.88;;
78799;SDS011;68148;55.328;86.106;2023-03-23T16:26:36;3.03;;;1.38;;
78799;SDS011;68148;55.328;86.106;2023-03-23T16:29:07;5.88;;;1.75;;
78799;SDS011;68148;55.328;86.106;2023-03-23T16:31:35;3.78;;;1.15;;
78799;SDS011;68148;55.328;86.106;2023-03-23T16:34:03;5.32;;;0.80;;
78799;SDS011;68148;55.328;86.106;2023-03-23T16:36:29;4.53;;;1.00;;
78799;SDS011;68148;55.328;86.106;2023-03-23T16:38:55;2.10;;;0.90;;
78799;SDS011;68148;55.328;86.106;2023-03-23T16:41:21;3.13;;;1.10;;
78799;SDS011;68148;55.328;86.106;2023-03-23T16:43:47;2.65;;;1.08;;
78799;SDS011;68148;55.328;86.106;2023-03-23T16:46:13;5.50;;;1.30;;
78799;SDS011;68148;55.328;86.106;2023-03-23T16:48:39;3.53;;;1.00;;
78799;SDS011;68148;55.328;86.106;2023-03-23T16:51:07;3.10;;;1.20;;
78799;SDS011;68148;55.328;86.106;2023-03-23T16:53:33;3.20;;;0.88;;
78799;SDS011;68148;55.328;86.106;2023-03-23T16:56:00;4.03;;;0.93;;
78799;SDS011;68148;55.328;86.106;2023-03-23T16:58:26;3.65;;;0.93;;
78799;SDS011;68148;55.328;86.106;2023-03-23T17:00:53;2.75;;;0.90;;
78799;SDS011;68148;55.328;86.106;2023-03-23T17:03:20;4.05;;;1.00;;
78799;SDS011;68148;55.328;86.106;2023-03-23T17:05:48;3.33;;;0.60;;